sensor_id;sensor_type;location;lat;lon;timestamp;temperature;humidity
40534;DHT22;26233;51.894;10.192;2023-07-08T00:00:21;24.90;28.20
40534;DHT22;26233;51.894;10.192;2023-07-08T00:02:49;24.90;28.30
40534;DHT22;26233;51.894;10.192;2023-07-08T00:05:18;24.70;28.20
40534;DHT22;26233;51.894;10.192;2023-07-08T00:07:46;24.60;28.20
40534;DHT22;26233;51.894;10.192;2023-07-08T00:10:16;24.50;28.30
40534;DHT22;26233;51.894;10.192;2023-07-08T00:12:48;24.40;28.40
40534;DHT22;26233;51.894;10.192;2023-07-08T00:15:17;24.30;28.50
40534;DHT22;26233;51.894;10.192;2023-07-08T00:17:45;24.20;28.60
40534;DHT22;26233;51.894;10.192;2023-07-08T00:20:14;24.00;28.60
40534;DHT22;26233;51.894;10.192;2023-07-08T00:22:44;23.90;28.70
40534;DHT22;26233;51.894;10.192;2023-07-08T00:25:13;23.80;28.80
40534;DHT22;26233;51.894;10.192;2023-07-08T00:27:43;23.70;28.90
40534;DHT22;26233;51.894;10.192;2023-07-08T00:30:22;23.60;28.90
40534;DHT22;26233;51.894;10.192;2023-07-08T00:32:50;23.50;29.30
40534;DHT22;26233;51.894;10.192;2023-07-08T00:35:21;23.40;29.10
40534;DHT22;26233;51.894;10.192;2023-07-08T00:37:50;23.30;29.20
40534;DHT22;26233;51.894;10.192;2023-07-08T00:40:21;23.20;29.20
40534;DHT22;26233;51.894;10.192;2023-07-08T00:42:52;23.10;29.40
40534;DHT22;26233;51.894;10.192;2023-07-08T00:45:37;23.00;29.50
40534;DHT22;26233;51.894;10.192;2023-07-08T00:48:19;22.90;29.80
40534;DHT22;26233;51.894;10.192;2023-07-08T00:50:49;22.80;29.70
40534;DHT22;26233;51.894;10.192;2023-07-08T00:53:23;22.70;29.40
40534;DHT22;26233;51.894;10.192;2023-07-08T00:55:52;22.60;29.60
40534;DHT22;26233;51.894;10.192;2023-07-08T00:58:34;22.60;29.60
40534;DHT22;26233;51.894;10.192;2023-07-08T01:01:05;22.50;29.70
40534;DHT22;26233;51.894;10.192;2023-07-08T01:03:36;22.40;29.70
40534;DHT22;26233;51.894;10.192;2023-07-08T01:06:07;22.30;29.80
40534;DHT22;26233;51.894;10.192;2023-07-08T01:08:34;22.20;29.80
40534;DHT22;26233;51.894;10.192;2023-07-08T01:11:03;22.10;29.80
40534;DHT22;26233;51.894;10.192;2023-07-08T01:13:35;22.10;29.90
40534;DHT22;26233;51.894;10.192;2023-07-08T01:16:04;22.00;30.00
40534;DHT22;26233;51.894;10.192;2023-07-08T01:18:32;22.00;29.90
40534;DHT22;26233;51.894;10.192;2023-07-08T01:21:02;22.00;30.00
40534;DHT22;26233;51.894;10.192;2023-07-08T01:23:34;21.90;30.00
40534;DHT22;26233;51.894;10.192;2023-07-08T01:26:03;21.90;30.00
40534;DHT22;26233;51.894;10.192;2023-07-08T01:28:36;21.80;30.00
40534;DHT22;26233;51.894;10.192;2023-07-08T01:31:03;21.80;30.20
40534;DHT22;26233;51.894;10.192;2023-07-08T01:33:30;21.70;30.10
40534;DHT22;26233;51.894;10.192;2023-07-08T01:35:59;21.70;30.10
40534;DHT22;26233;51.894;10.192;2023-07-08T01:38:27;21.60;30.10
40534;DHT22;26233;51.894;10.192;2023-07-08T01:40:57;21.60;30.30
40534;DHT22;26233;51.894;10.192;2023-07-08T01:43:25;21.50;30.30
40534;DHT22;26233;51.894;10.192;2023-07-08T01:45:52;21.50;30.30
40534;DHT22;26233;51.894;10.192;2023-07-08T01:48:22;21.30;30.40
40534;DHT22;26233;51.894;10.192;2023-07-08T01:50:53;21.30;30.70
40534;DHT22;26233;51.894;10.192;2023-07-08T01:53:29;21.20;30.60
40534;DHT22;26233;51.894;10.192;2023-07-08T01:55:59;21.10;30.70
40534;DHT22;26233;51.894;10.192;2023-07-08T01:58:27;21.00;30.60
40534;DHT22;26233;51.894;10.192;2023-07-08T02:00:54;20.90;30.70
40534;DHT22;26233;51.894;10.192;2023-07-08T02:03:22;20.80;30.80
40534;DHT22;26233;51.894;10.192;2023-07-08T02:05:49;20.80;31.00
40534;DHT22;26233;51.894;10.192;2023-07-08T02:08:16;20.80;31.10
40534;DHT22;26233;51.894;10.192;2023-07-08T02:10:48;20.70;31.10
40534;DHT22;26233;51.894;10.192;2023-07-08T02:13:21;20.70;31.40
40534;DHT22;26233;51.894;10.192;2023-07-08T02:15:49;20.60;31.60
40534;DHT22;26233;51.894;10.192;2023-07-08T02:18:17;20.60;31.40
40534;DHT22;26233;51.894;10.192;2023-07-08T02:20:44;20.50;31.50
40534;DHT22;26233;51.894;10.192;2023-07-08T02:23:13;20.40;31.50
40534;DHT22;26233;51.894;10.192;2023-07-08T02:25:50;20.40;31.70
40534;DHT22;26233;51.894;10.192;2023-07-08T02:28:18;20.30;32.00
40534;DHT22;26233;51.894;10.192;2023-07-08T02:30:47;20.20;31.80
40534;DHT22;26233;51.894;10.192;2023-07-08T02:33:14;20.20;31.80
40534;DHT22;26233;51.894;10.192;2023-07-08T02:35:43;20.20;31.80
40534;DHT22;26233;51.894;10.192;2023-07-08T02:38:11;20.20;32.00
40534;DHT22;26233;51.894;10.192;2023-07-08T02:40:38;20.10;31.90
40534;DHT22;26233;51.894;10.192;2023-07-08T02:43:05;20.10;31.90
40534;DHT22;26233;51.894;10.192;2023-07-08T02:45:32;20.10;31.90
40534;DHT22;26233;51.894;10.192;2023-07-08T02:48:00;20.10;32.00
40534;DHT22;26233;51.894;10.192;2023-07-08T02:50:27;19.90;32.10
40534;DHT22;26233;51.894;10.192;2023-07-08T02:52:54;19.90;32.20
40534;DHT22;26233;51.894;10.192;2023-07-08T02:55:21;19.90;32.50
40534;DHT22;26233;51.894;10.192;2023-07-08T02:57:49;19.90;32.20
40534;DHT22;26233;51.894;10.192;2023-07-08T03:00:16;19.80;32.20
40534;DHT22;26233;51.894;10.192;2023-07-08T03:02:43;19.80;32.30
40534;DHT22;26233;51.894;10.192;2023-07-08T03:05:13;19.70;32.40
40534;DHT22;26233;51.894;10.192;2023-07-08T03:07:40;19.70;32.40
40534;DHT22;26233;51.894;10.192;2023-07-08T03:10:07;19.70;32.40
40534;DHT22;26233;51.894;10.192;2023-07-08T03:12:35;19.60;32.40
40534;DHT22;26233;51.894;10.192;2023-07-08T03:15:02;19.60;32.50
40534;DHT22;26233;51.894;10.192;2023-07-08T03:17:30;19.50;32.60
40534;DHT22;26233;51.894;10.192;2023-07-08T03:19:57;19.50;32.60
40534;DHT22;26233;51.894;10.192;2023-07-08T03:22:27;19.50;32.70
40534;DHT22;26233;51.894;10.192;2023-07-08T03:24:54;19.50;32.80
40534;DHT22;26233;51.894;10.192;2023-07-08T03:27:21;19.50;32.80
40534;DHT22;26233;51.894;10.192;2023-07-08T03:29:48;19.50;32.90
40534;DHT22;26233;51.894;10.192;2023-07-08T03:32:15;19.50;33.00
40534;DHT22;26233;51.894;10.192;2023-07-08T03:34:42;19.50;33.00
40534;DHT22;26233;51.894;10.192;2023-07-08T03:37:10;19.50;33.10
40534;DHT22;26233;51.894;10.192;2023-07-08T03:39:38;19.50;33.10
40534;DHT22;26233;51.894;10.192;2023-07-08T03:42:05;19.40;33.20
40534;DHT22;26233;51.894;10.192;2023-07-08T03:44:33;19.40;33.20
40534;DHT22;26233;51.894;10.192;2023-07-08T03:47:00;19.30;33.20
40534;DHT22;26233;51.894;10.192;2023-07-08T03:49:28;19.30;33.30
40534;DHT22;26233;51.894;10.192;2023-07-08T03:51:55;19.30;33.30
40534;DHT22;26233;51.894;10.192;2023-07-08T03:54:24;19.30;33.50
40534;DHT22;26233;51.894;10.192;2023-07-08T03:56:52;19.30;34.20
40534;DHT22;26233;51.894;10.192;2023-07-08T03:59:19;19.30;33.60
40534;DHT22;26233;51.894;10.192;2023-07-08T04:01:47;19.30;33.70
40534;DHT22;26233;51.894;10.192;2023-07-08T04:04:16;19.30;33.80
40534;DHT22;26233;51.894;10.192;2023-07-08T04:06:46;19.20;33.80
40534;DHT22;26233;51.894;10.192;2023-07-08T04:09:13;19.20;33.90
40534;DHT22;26233;51.894;10.192;2023-07-08T04:11:40;19.20;34.00
40534;DHT22;26233;51.894;10.192;2023-07-08T04:14:09;19.20;34.80
40534;DHT22;26233;51.894;10.192;2023-07-08T04:16:49;19.20;34.30
40534;DHT22;26233;51.894;10.192;2023-07-08T04:19:17;19.20;34.60
40534;DHT22;26233;51.894;10.192;2023-07-08T04:21:45;19.20;34.30
40534;DHT22;26233;51.894;10.192;2023-07-08T04:24:15;19.20;34.50
40534;DHT22;26233;51.894;10.192;2023-07-08T04:26:44;19.20;34.70
40534;DHT22;26233;51.894;10.192;2023-07-08T04:29:17;19.20;34.70
40534;DHT22;26233;51.894;10.192;2023-07-08T04:31:45;19.20;34.80
40534;DHT22;26233;51.894;10.192;2023-07-08T04:34:14;19.30;34.80
40534;DHT22;26233;51.894;10.192;2023-07-08T04:36:42;19.30;34.90
40534;DHT22;26233;51.894;10.192;2023-07-08T04:39:10;19.30;35.00
40534;DHT22;26233;51.894;10.192;2023-07-08T04:41:39;19.30;35.20
40534;DHT22;26233;51.894;10.192;2023-07-08T04:44:09;19.40;35.30
40534;DHT22;26233;51.894;10.192;2023-07-08T04:46:41;19.40;35.40
40534;DHT22;26233;51.894;10.192;2023-07-08T04:49:11;19.50;35.80
40534;DHT22;26233;51.894;10.192;2023-07-08T04:51:39;19.50;35.70
40534;DHT22;26233;51.894;10.192;2023-07-08T04:54:07;19.60;35.90
40534;DHT22;26233;51.894;10.192;2023-07-08T04:56:36;19.60;35.90
40534;DHT22;26233;51.894;10.192;2023-07-08T04:59:04;19.60;36.10
40534;DHT22;26233;51.894;10.192;2023-07-08T05:01:32;19.70;36.10
40534;DHT22;26233;51.894;10.192;2023-07-08T05:04:00;19.70;36.20
40534;DHT22;26233;51.894;10.192;2023-07-08T05:06:28;19.80;36.20
40534;DHT22;26233;51.894;10.192;2023-07-08T05:08:55;19.90;36.30
40534;DHT22;26233;51.894;10.192;2023-07-08T05:11:22;19.90;36.40
40534;DHT22;26233;51.894;10.192;2023-07-08T05:13:50;20.00;36.40
40534;DHT22;26233;51.894;10.192;2023-07-08T05:16:17;20.00;36.40
40534;DHT22;26233;51.894;10.192;2023-07-08T05:18:44;20.10;36.60
40534;DHT22;26233;51.894;10.192;2023-07-08T05:21:14;20.10;36.70
40534;DHT22;26233;51.894;10.192;2023-07-08T05:23:41;20.20;37.00
40534;DHT22;26233;51.894;10.192;2023-07-08T05:26:10;20.30;36.90
40534;DHT22;26233;51.894;10.192;2023-07-08T05:28:37;20.30;36.90
40534;DHT22;26233;51.894;10.192;2023-07-08T05:31:04;20.40;36.80
40534;DHT22;26233;51.894;10.192;2023-07-08T05:33:32;20.50;36.90
40534;DHT22;26233;51.894;10.192;2023-07-08T05:35:59;20.60;37.00
40534;DHT22;26233;51.894;10.192;2023-07-08T05:38:28;20.60;37.10
40534;DHT22;26233;51.894;10.192;2023-07-08T05:40:56;20.70;37.20
40534;DHT22;26233;51.894;10.192;2023-07-08T05:43:25;20.80;37.20
40534;DHT22;26233;51.894;10.192;2023-07-08T05:45:56;20.90;37.20
40534;DHT22;26233;51.894;10.192;2023-07-08T05:48:24;20.90;37.20
40534;DHT22;26233;51.894;10.192;2023-07-08T05:50:51;21.10;37.30
40534;DHT22;26233;51.894;10.192;2023-07-08T05:53:19;21.20;37.20
40534;DHT22;26233;51.894;10.192;2023-07-08T05:55:48;21.30;37.10
40534;DHT22;26233;51.894;10.192;2023-07-08T05:58:16;21.40;37.20
40534;DHT22;26233;51.894;10.192;2023-07-08T06:00:43;21.50;37.00
40534;DHT22;26233;51.894;10.192;2023-07-08T06:03:11;21.60;36.90
40534;DHT22;26233;51.894;10.192;2023-07-08T06:05:38;21.70;36.90
40534;DHT22;26233;51.894;10.192;2023-07-08T06:08:06;21.80;37.00
40534;DHT22;26233;51.894;10.192;2023-07-08T06:10:34;21.90;37.00
40534;DHT22;26233;51.894;10.192;2023-07-08T06:13:03;22.00;37.00
40534;DHT22;26233;51.894;10.192;2023-07-08T06:15:30;22.20;37.40
40534;DHT22;26233;51.894;10.192;2023-07-08T06:17:58;22.30;37.50
40534;DHT22;26233;51.894;10.192;2023-07-08T06:20:28;22.40;37.60
40534;DHT22;26233;51.894;10.192;2023-07-08T06:22:55;22.50;37.50
40534;DHT22;26233;51.894;10.192;2023-07-08T06:25:22;22.60;37.30
40534;DHT22;26233;51.894;10.192;2023-07-08T06:27:49;22.70;37.20
40534;DHT22;26233;51.894;10.192;2023-07-08T06:30:18;22.80;37.00
40534;DHT22;26233;51.894;10.192;2023-07-08T06:32:45;23.00;37.10
40534;DHT22;26233;51.894;10.192;2023-07-08T06:35:12;23.10;37.10
40534;DHT22;26233;51.894;10.192;2023-07-08T06:37:39;23.20;37.20
40534;DHT22;26233;51.894;10.192;2023-07-08T06:40:07;23.30;37.00
40534;DHT22;26233;51.894;10.192;2023-07-08T06:42:35;23.40;37.10
40534;DHT22;26233;51.894;10.192;2023-07-08T06:45:03;23.50;37.10
40534;DHT22;26233;51.894;10.192;2023-07-08T06:47:31;23.60;37.00
40534;DHT22;26233;51.894;10.192;2023-07-08T06:49:58;23.70;37.00
40534;DHT22;26233;51.894;10.192;2023-07-08T06:52:26;23.80;36.90
40534;DHT22;26233;51.894;10.192;2023-07-08T06:54:53;23.90;36.80
40534;DHT22;26233;51.894;10.192;2023-07-08T06:57:20;24.00;37.10
40534;DHT22;26233;51.894;10.192;2023-07-08T06:59:47;24.10;37.20
40534;DHT22;26233;51.894;10.192;2023-07-08T07:02:14;24.20;37.40
40534;DHT22;26233;51.894;10.192;2023-07-08T07:04:43;24.30;37.40
40534;DHT22;26233;51.894;10.192;2023-07-08T07:07:11;24.40;37.40
40534;DHT22;26233;51.894;10.192;2023-07-08T07:09:38;24.50;37.50
40534;DHT22;26233;51.894;10.192;2023-07-08T07:12:07;24.60;37.50
40534;DHT22;26233;51.894;10.192;2023-07-08T07:14:34;24.70;37.20
40534;DHT22;26233;51.894;10.192;2023-07-08T07:17:02;24.90;37.10
40534;DHT22;26233;51.894;10.192;2023-07-08T07:19:29;25.00;37.20
40534;DHT22;26233;51.894;10.192;2023-07-08T07:21:58;25.20;37.80
40534;DHT22;26233;51.894;10.192;2023-07-08T07:24:25;25.40;38.50
40534;DHT22;26233;51.894;10.192;2023-07-08T07:26:52;25.80;39.00
40534;DHT22;26233;51.894;10.192;2023-07-08T07:29:21;26.40;39.70
40534;DHT22;26233;51.894;10.192;2023-07-08T07:31:49;27.00;39.70
40534;DHT22;26233;51.894;10.192;2023-07-08T07:34:17;27.70;39.50
40534;DHT22;26233;51.894;10.192;2023-07-08T07:36:43;28.40;39.50
40534;DHT22;26233;51.894;10.192;2023-07-08T07:39:13;29.10;38.90
40534;DHT22;26233;51.894;10.192;2023-07-08T07:41:40;29.80;38.20
40534;DHT22;26233;51.894;10.192;2023-07-08T07:44:07;30.50;37.90
40534;DHT22;26233;51.894;10.192;2023-07-08T07:46:34;31.20;37.20
40534;DHT22;26233;51.894;10.192;2023-07-08T07:49:01;31.70;36.40
40534;DHT22;26233;51.894;10.192;2023-07-08T07:51:28;32.20;35.60
40534;DHT22;26233;51.894;10.192;2023-07-08T07:53:55;32.70;35.60
40534;DHT22;26233;51.894;10.192;2023-07-08T07:56:24;33.30;35.60
40534;DHT22;26233;51.894;10.192;2023-07-08T07:58:51;33.80;35.00
40534;DHT22;26233;51.894;10.192;2023-07-08T08:01:18;34.10;34.40
40534;DHT22;26233;51.894;10.192;2023-07-08T08:03:45;34.50;33.80
40534;DHT22;26233;51.894;10.192;2023-07-08T08:06:12;34.70;33.50
40534;DHT22;26233;51.894;10.192;2023-07-08T08:08:39;35.00;33.50
40534;DHT22;26233;51.894;10.192;2023-07-08T08:11:06;35.30;33.00
40534;DHT22;26233;51.894;10.192;2023-07-08T08:13:35;35.60;32.90
40534;DHT22;26233;51.894;10.192;2023-07-08T08:16:02;35.80;32.50
40534;DHT22;26233;51.894;10.192;2023-07-08T08:18:30;36.10;32.10
40534;DHT22;26233;51.894;10.192;2023-07-08T08:20:57;36.20;31.70
40534;DHT22;26233;51.894;10.192;2023-07-08T08:23:24;36.30;31.50
40534;DHT22;26233;51.894;10.192;2023-07-08T08:25:51;36.40;31.40
40534;DHT22;26233;51.894;10.192;2023-07-08T08:28:18;36.60;31.50
40534;DHT22;26233;51.894;10.192;2023-07-08T08:30:48;36.80;31.40
40534;DHT22;26233;51.894;10.192;2023-07-08T08:33:16;37.10;31.00
40534;DHT22;26233;51.894;10.192;2023-07-08T08:35:43;37.30;31.40
40534;DHT22;26233;51.894;10.192;2023-07-08T08:38:10;37.60;30.80
40534;DHT22;26233;51.894;10.192;2023-07-08T08:40:39;37.80;30.40
40534;DHT22;26233;51.894;10.192;2023-07-08T08:43:10;37.90;30.20
40534;DHT22;26233;51.894;10.192;2023-07-08T08:45:43;38.00;29.90
40534;DHT22;26233;51.894;10.192;2023-07-08T08:48:16;38.10;29.60
40534;DHT22;26233;51.894;10.192;2023-07-08T08:50:50;38.20;29.40
40534;DHT22;26233;51.894;10.192;2023-07-08T08:53:20;38.20;29.30
40534;DHT22;26233;51.894;10.192;2023-07-08T08:55:56;38.30;29.50
40534;DHT22;26233;51.894;10.192;2023-07-08T08:58:31;38.40;29.30
40534;DHT22;26233;51.894;10.192;2023-07-08T09:01:02;38.40;29.20
40534;DHT22;26233;51.894;10.192;2023-07-08T09:03:37;38.40;29.30
40534;DHT22;26233;51.894;10.192;2023-07-08T09:06:15;38.40;28.70
40534;DHT22;26233;51.894;10.192;2023-07-08T09:08:44;38.50;28.70
40534;DHT22;26233;51.894;10.192;2023-07-08T09:11:25;38.60;28.80
40534;DHT22;26233;51.894;10.192;2023-07-08T09:13:58;38.50;28.40
40534;DHT22;26233;51.894;10.192;2023-07-08T09:16:33;38.60;28.60
40534;DHT22;26233;51.894;10.192;2023-07-08T09:19:12;38.60;28.70
40534;DHT22;26233;51.894;10.192;2023-07-08T09:21:44;38.70;28.20
40534;DHT22;26233;51.894;10.192;2023-07-08T09:24:19;38.90;28.30
40534;DHT22;26233;51.894;10.192;2023-07-08T09:26:51;39.10;28.60
40534;DHT22;26233;51.894;10.192;2023-07-08T09:29:18;39.40;28.40
40534;DHT22;26233;51.894;10.192;2023-07-08T09:31:47;39.60;28.40
40534;DHT22;26233;51.894;10.192;2023-07-08T09:34:17;39.90;28.20
40534;DHT22;26233;51.894;10.192;2023-07-08T09:36:48;40.00;27.60
40534;DHT22;26233;51.894;10.192;2023-07-08T09:39:18;40.10;27.90
40534;DHT22;26233;51.894;10.192;2023-07-08T09:41:48;40.20;27.60
40534;DHT22;26233;51.894;10.192;2023-07-08T09:44:21;40.30;27.90
40534;DHT22;26233;51.894;10.192;2023-07-08T09:46:55;40.30;27.60
40534;DHT22;26233;51.894;10.192;2023-07-08T09:49:28;40.50;27.80
40534;DHT22;26233;51.894;10.192;2023-07-08T09:51:59;40.60;27.10
40534;DHT22;26233;51.894;10.192;2023-07-08T09:54:27;40.70;27.30
40534;DHT22;26233;51.894;10.192;2023-07-08T09:56:59;40.80;27.10
40534;DHT22;26233;51.894;10.192;2023-07-08T09:59:33;40.80;27.00
40534;DHT22;26233;51.894;10.192;2023-07-08T10:02:25;41.00;27.60
40534;DHT22;26233;51.894;10.192;2023-07-08T10:04:56;41.00;27.30
40534;DHT22;26233;51.894;10.192;2023-07-08T10:07:28;41.10;27.20
40534;DHT22;26233;51.894;10.192;2023-07-08T10:09:59;41.20;27.20
40534;DHT22;26233;51.894;10.192;2023-07-08T10:12:30;41.30;27.20
40534;DHT22;26233;51.894;10.192;2023-07-08T10:15:01;41.30;27.10
40534;DHT22;26233;51.894;10.192;2023-07-08T10:17:32;41.30;27.00
40534;DHT22;26233;51.894;10.192;2023-07-08T10:20:10;41.30;27.10
40534;DHT22;26233;51.894;10.192;2023-07-08T10:22:42;41.20;26.70
40534;DHT22;26233;51.894;10.192;2023-07-08T10:25:26;41.20;26.60
40534;DHT22;26233;51.894;10.192;2023-07-08T10:28:00;41.20;27.50
40534;DHT22;26233;51.894;10.192;2023-07-08T10:30:44;41.20;26.90
40534;DHT22;26233;51.894;10.192;2023-07-08T10:33:35;41.30;26.30
40534;DHT22;26233;51.894;10.192;2023-07-08T10:36:21;41.30;26.60
40534;DHT22;26233;51.894;10.192;2023-07-08T10:39:05;41.50;26.10
40534;DHT22;26233;51.894;10.192;2023-07-08T10:41:49;41.60;25.70
40534;DHT22;26233;51.894;10.192;2023-07-08T10:44:26;41.80;25.60
40534;DHT22;26233;51.894;10.192;2023-07-08T10:47:02;42.10;25.40
40534;DHT22;26233;51.894;10.192;2023-07-08T10:49:57;42.30;25.40
40534;DHT22;26233;51.894;10.192;2023-07-08T10:52:42;42.50;25.30
40534;DHT22;26233;51.894;10.192;2023-07-08T10:55:28;42.60;24.70
40534;DHT22;26233;51.894;10.192;2023-07-08T10:58:13;42.80;24.70
40534;DHT22;26233;51.894;10.192;2023-07-08T11:00:57;42.90;23.90
40534;DHT22;26233;51.894;10.192;2023-07-08T11:03:39;42.90;24.50
40534;DHT22;26233;51.894;10.192;2023-07-08T11:06:43;42.80;23.70
40534;DHT22;26233;51.894;10.192;2023-07-08T11:09:17;42.60;23.80
40534;DHT22;26233;51.894;10.192;2023-07-08T11:11:54;42.60;24.70
40534;DHT22;26233;51.894;10.192;2023-07-08T11:14:27;42.60;24.50
40534;DHT22;26233;51.894;10.192;2023-07-08T11:17:05;42.70;24.90
40534;DHT22;26233;51.894;10.192;2023-07-08T11:19:40;42.80;24.70
40534;DHT22;26233;51.894;10.192;2023-07-08T11:22:12;42.90;24.40
40534;DHT22;26233;51.894;10.192;2023-07-08T11:24:45;43.10;24.40
40534;DHT22;26233;51.894;10.192;2023-07-08T11:27:16;43.10;24.50
40534;DHT22;26233;51.894;10.192;2023-07-08T11:29:53;43.20;23.90
40534;DHT22;26233;51.894;10.192;2023-07-08T11:32:25;43.20;24.30
40534;DHT22;26233;51.894;10.192;2023-07-08T11:34:55;43.20;24.10
40534;DHT22;26233;51.894;10.192;2023-07-08T11:37:25;43.20;23.40
40534;DHT22;26233;51.894;10.192;2023-07-08T11:39:58;43.20;23.20
40534;DHT22;26233;51.894;10.192;2023-07-08T11:42:35;43.10;23.40
40534;DHT22;26233;51.894;10.192;2023-07-08T11:45:08;43.00;23.00
40534;DHT22;26233;51.894;10.192;2023-07-08T11:47:44;42.90;22.80
40534;DHT22;26233;51.894;10.192;2023-07-08T11:50:14;42.90;22.70
40534;DHT22;26233;51.894;10.192;2023-07-08T11:52:52;42.80;22.60
40534;DHT22;26233;51.894;10.192;2023-07-08T11:55:25;42.60;22.70
40534;DHT22;26233;51.894;10.192;2023-07-08T11:57:55;42.50;22.40
40534;DHT22;26233;51.894;10.192;2023-07-08T12:00:24;42.20;21.80
40534;DHT22;26233;51.894;10.192;2023-07-08T12:02:55;42.00;21.90
40534;DHT22;26233;51.894;10.192;2023-07-08T12:05:32;41.80;21.90
40534;DHT22;26233;51.894;10.192;2023-07-08T12:08:01;41.60;21.60
40534;DHT22;26233;51.894;10.192;2023-07-08T12:10:36;41.50;22.00
40534;DHT22;26233;51.894;10.192;2023-07-08T12:13:10;41.30;21.40
40534;DHT22;26233;51.894;10.192;2023-07-08T12:15:41;41.10;21.80
40534;DHT22;26233;51.894;10.192;2023-07-08T12:18:13;41.00;21.50
40534;DHT22;26233;51.894;10.192;2023-07-08T12:20:44;40.80;21.70
40534;DHT22;26233;51.894;10.192;2023-07-08T12:23:17;40.60;21.40
40534;DHT22;26233;51.894;10.192;2023-07-08T12:25:48;40.50;21.20
40534;DHT22;26233;51.894;10.192;2023-07-08T12:28:15;40.30;21.00
40534;DHT22;26233;51.894;10.192;2023-07-08T12:30:45;40.20;21.00
40534;DHT22;26233;51.894;10.192;2023-07-08T12:33:13;40.00;21.10
40534;DHT22;26233;51.894;10.192;2023-07-08T12:35:44;39.90;21.20
40534;DHT22;26233;51.894;10.192;2023-07-08T12:38:20;39.80;20.80
40534;DHT22;26233;51.894;10.192;2023-07-08T12:40:54;39.60;20.40
40534;DHT22;26233;51.894;10.192;2023-07-08T12:43:22;39.50;20.30
40534;DHT22;26233;51.894;10.192;2023-07-08T12:45:49;39.40;20.30
40534;DHT22;26233;51.894;10.192;2023-07-08T12:48:16;39.30;19.90
40534;DHT22;26233;51.894;10.192;2023-07-08T12:50:43;39.20;19.90
40534;DHT22;26233;51.894;10.192;2023-07-08T12:53:11;39.10;20.00
40534;DHT22;26233;51.894;10.192;2023-07-08T12:55:39;39.00;20.30
40534;DHT22;26233;51.894;10.192;2023-07-08T12:58:13;39.00;20.80
40534;DHT22;26233;51.894;10.192;2023-07-08T13:00:45;38.90;20.50
40534;DHT22;26233;51.894;10.192;2023-07-08T13:03:15;38.90;20.10
40534;DHT22;26233;51.894;10.192;2023-07-08T13:05:44;38.90;20.10
40534;DHT22;26233;51.894;10.192;2023-07-08T13:08:12;38.90;19.90
40534;DHT22;26233;51.894;10.192;2023-07-08T13:10:40;38.80;19.80
40534;DHT22;26233;51.894;10.192;2023-07-08T13:13:15;38.70;19.80
40534;DHT22;26233;51.894;10.192;2023-07-08T13:15:45;38.70;20.00
40534;DHT22;26233;51.894;10.192;2023-07-08T13:18:14;38.60;20.20
40534;DHT22;26233;51.894;10.192;2023-07-08T13:20:45;38.50;20.20
40534;DHT22;26233;51.894;10.192;2023-07-08T13:23:13;38.40;20.00
40534;DHT22;26233;51.894;10.192;2023-07-08T13:25:41;38.40;20.30
40534;DHT22;26233;51.894;10.192;2023-07-08T13:28:22;38.30;20.40
40534;DHT22;26233;51.894;10.192;2023-07-08T13:30:52;38.20;20.00
40534;DHT22;26233;51.894;10.192;2023-07-08T13:33:20;38.10;20.10
40534;DHT22;26233;51.894;10.192;2023-07-08T13:35:49;38.10;20.50
40534;DHT22;26233;51.894;10.192;2023-07-08T13:38:19;38.10;21.10
40534;DHT22;26233;51.894;10.192;2023-07-08T13:40:53;38.10;20.70
40534;DHT22;26233;51.894;10.192;2023-07-08T13:43:25;38.00;20.80
40534;DHT22;26233;51.894;10.192;2023-07-08T13:45:54;37.90;20.90
40534;DHT22;26233;51.894;10.192;2023-07-08T13:48:26;37.80;20.90
40534;DHT22;26233;51.894;10.192;2023-07-08T13:50:58;37.60;20.80
40534;DHT22;26233;51.894;10.192;2023-07-08T13:53:40;37.50;20.70
40534;DHT22;26233;51.894;10.192;2023-07-08T13:56:14;37.30;20.90
40534;DHT22;26233;51.894;10.192;2023-07-08T13:58:45;37.10;21.50
40534;DHT22;26233;51.894;10.192;2023-07-08T14:01:17;37.00;21.10
40534;DHT22;26233;51.894;10.192;2023-07-08T14:03:45;37.00;21.40
40534;DHT22;26233;51.894;10.192;2023-07-08T14:06:14;36.90;21.40
40534;DHT22;26233;51.894;10.192;2023-07-08T14:08:42;36.90;21.30
40534;DHT22;26233;51.894;10.192;2023-07-08T14:11:09;36.90;21.40
40534;DHT22;26233;51.894;10.192;2023-07-08T14:13:36;36.90;21.20
40534;DHT22;26233;51.894;10.192;2023-07-08T14:16:13;36.80;21.40
40534;DHT22;26233;51.894;10.192;2023-07-08T14:18:48;36.80;21.40
40534;DHT22;26233;51.894;10.192;2023-07-08T14:21:15;36.70;21.30
40534;DHT22;26233;51.894;10.192;2023-07-08T14:23:44;36.70;21.20
40534;DHT22;26233;51.894;10.192;2023-07-08T14:26:11;36.50;21.60
40534;DHT22;26233;51.894;10.192;2023-07-08T14:28:39;36.50;21.40
40534;DHT22;26233;51.894;10.192;2023-07-08T14:31:11;36.30;21.50
40534;DHT22;26233;51.894;10.192;2023-07-08T14:33:41;36.30;21.90
40534;DHT22;26233;51.894;10.192;2023-07-08T14:36:09;36.30;22.00
40534;DHT22;26233;51.894;10.192;2023-07-08T14:38:36;36.20;21.60
40534;DHT22;26233;51.894;10.192;2023-07-08T14:41:04;36.20;21.80
40534;DHT22;26233;51.894;10.192;2023-07-08T14:43:33;36.10;21.60
40534;DHT22;26233;51.894;10.192;2023-07-08T14:46:03;36.10;21.80
40534;DHT22;26233;51.894;10.192;2023-07-08T14:48:33;36.00;22.10
40534;DHT22;26233;51.894;10.192;2023-07-08T14:51:00;36.00;22.10
40534;DHT22;26233;51.894;10.192;2023-07-08T14:53:27;36.10;22.20
40534;DHT22;26233;51.894;10.192;2023-07-08T14:55:55;36.00;22.60
40534;DHT22;26233;51.894;10.192;2023-07-08T14:58:26;36.00;22.20
40534;DHT22;26233;51.894;10.192;2023-07-08T15:00:57;36.00;22.30
40534;DHT22;26233;51.894;10.192;2023-07-08T15:03:25;35.90;22.60
40534;DHT22;26233;51.894;10.192;2023-07-08T15:05:55;35.90;22.70
40534;DHT22;26233;51.894;10.192;2023-07-08T15:08:22;35.90;22.90
40534;DHT22;26233;51.894;10.192;2023-07-08T15:10:51;35.80;22.50
40534;DHT22;26233;51.894;10.192;2023-07-08T15:13:20;35.80;22.70
40534;DHT22;26233;51.894;10.192;2023-07-08T15:15:49;35.80;22.90
40534;DHT22;26233;51.894;10.192;2023-07-08T15:18:17;35.70;22.60
40534;DHT22;26233;51.894;10.192;2023-07-08T15:20:45;35.60;22.80
40534;DHT22;26233;51.894;10.192;2023-07-08T15:23:14;35.60;22.80
40534;DHT22;26233;51.894;10.192;2023-07-08T15:25:43;35.60;23.00
40534;DHT22;26233;51.894;10.192;2023-07-08T15:28:16;35.50;22.90
40534;DHT22;26233;51.894;10.192;2023-07-08T15:30:44;35.50;23.20
40534;DHT22;26233;51.894;10.192;2023-07-08T15:33:13;35.40;22.90